Time;durP1;ratioP1;P1;durP2;ratioP2;P2;SDS_P1;SDS_P2;PMS_P1;PMS_P2;Temp;Humidity;BMP_temperature;BMP_pressure;BME280_temperature;BME280_humidity;BME280_pressure;Samples;Min_cycle;Max_cycle;Signal;HPM_P1;HPM_P2
2022/07/19 00:01:48;;;;;;;8.00;2.40;;;;;;;;;;4983165;28;20661;-61
2022/07/19 00:04:13;;;;;;;6.55;2.40;;;;;;;;;;4983594;28;20039;-61
2022/07/19 00:06:39;;;;;;;6.55;2.20;;;;;;;;;;4987445;28;20033;-61
2022/07/19 00:09:04;;;;;;;8.02;2.25;;;;;;;;;;4986372;28;20109;-61
2022/07/19 00:11:31;;;;;;;6.43;2.22;;;;;;;;;;4988876;28;20056;-61
2022/07/19 00:13:57;;;;;;;9.18;2.17;;;;;;;;;;4987037;28;20039;-61
2022/07/19 00:16:22;;;;;;;3.75;2.10;;;;;;;;;;4982938;28;20050;-62
2022/07/19 00:18:48;;;;;;;10.57;2.17;;;;;;;;;;4981673;28;20038;-61
2022/07/19 00:21:14;;;;;;;7.35;2.15;;;;;;;;;;4980739;28;20133;-64
2022/07/19 00:23:39;;;;;;;7.18;1.80;;;;;;;;;;4979590;28;20054;-63
2022/07/19 00:26:06;;;;;;;5.93;2.10;;;;;;;;;;4982947;28;20050;-61
2022/07/19 00:28:31;;;;;;;4.95;2.22;;;;;;;;;;4984910;28;20046;-61
2022/07/19 00:30:57;;;;;;;5.20;2.22;;;;;;;;;;4982479;28;20473;-61
2022/07/19 00:33:22;;;;;;;10.73;2.08;;;;;;;;;;4986034;28;20082;-61
2022/07/19 00:35:47;;;;;;;4.88;1.77;;;;;;;;;;4982655;28;20691;-62
2022/07/19 00:38:14;;;;;;;7.25;1.95;;;;;;;;;;4989001;28;20042;-61
2022/07/19 00:40:41;;;;;;;3.95;2.08;;;;;;;;;;4985040;28;20051;-61
2022/07/19 00:43:07;;;;;;;3.78;1.70;;;;;;;;;;4988192;28;20531;-61
2022/07/19 00:45:33;;;;;;;4.88;1.95;;;;;;;;;;4985321;28;20540;-61
2022/07/19 00:47:59;;;;;;;3.72;1.83;;;;;;;;;;4986038;28;20062;-62
2022/07/19 00:50:25;;;;;;;4.03;1.92;;;;;;;;;;4990845;28;20552;-61
2022/07/19 00:52:54;;;;;;;3.75;1.70;;;;;;;;;;4984408;28;20077;-62
2022/07/19 00:55:20;;;;;;;2.15;1.60;;;;;;;;;;4985706;28;20038;-62
2022/07/19 00:57:47;;;;;;;4.00;1.90;;;;;;;;;;4990707;28;20961;-60
2022/07/19 01:00:18;;;;;;;6.85;1.65;;;;;;;;;;4990885;28;20042;-62
2022/07/19 01:02:43;;;;;;;4.70;1.60;;;;;;;;;;4989916;28;20045;-65
2022/07/19 01:05:10;;;;;;;2.22;1.70;;;;;;;;;;4989358;28;20401;-63
2022/07/19 01:07:40;;;;;;;3.10;1.60;;;;;;;;;;4985619;28;20643;-64
2022/07/19 01:10:07;;;;;;;7.00;1.98;;;;;;;;;;4983090;28;20042;-64
2022/07/19 01:12:33;;;;;;;3.85;1.80;;;;;;;;;;4983836;28;20026;-64
2022/07/19 01:15:00;;;;;;;5.40;1.85;;;;;;;;;;4982236;28;20140;-63
2022/07/19 01:17:26;;;;;;;6.88;1.75;;;;;;;;;;4987409;28;20065;-63
2022/07/19 01:19:53;;;;;;;7.65;1.65;;;;;;;;;;4980726;28;20059;-64
2022/07/19 01:22:19;;;;;;;8.25;1.80;;;;;;;;;;4990106;28;20034;-63
2022/07/19 01:24:44;;;;;;;4.68;1.80;;;;;;;;;;4987691;28;20076;-63
2022/07/19 01:27:10;;;;;;;4.78;1.77;;;;;;;;;;4988964;28;20233;-64
2022/07/19 01:29:36;;;;;;;5.25;1.80;;;;;;;;;;4989257;28;20476;-64
2022/07/19 01:32:05;;;;;;;5.78;1.90;;;;;;;;;;4988542;28;20057;-63
2022/07/19 01:34:31;;;;;;;6.55;1.83;;;;;;;;;;4984615;28;20050;-64
2022/07/19 01:36:56;;;;;;;8.07;1.70;;;;;;;;;;4986518;28;20484;-64
2022/07/19 01:39:22;;;;;;;4.18;1.70;;;;;;;;;;4990271;28;20057;-63
2022/07/19 01:41:48;;;;;;;3.58;1.60;;;;;;;;;;4983056;28;20049;-63
2022/07/19 01:44:14;;;;;;;5.03;1.77;;;;;;;;;;4985720;28;20045;-64
2022/07/19 01:46:39;;;;;;;3.75;1.95;;;;;;;;;;4992554;28;20129;-64
2022/07/19 01:49:04;;;;;;;3.72;1.55;;;;;;;;;;4992567;28;20096;-64
2022/07/19 01:51:30;;;;;;;3.42;1.55;;;;;;;;;;4990732;28;20468;-63
2022/07/19 01:53:55;;;;;;;4.07;1.60;;;;;;;;;;4984312;28;20058;-63
2022/07/19 01:56:21;;;;;;;3.35;1.70;;;;;;;;;;4985905;28;20053;-63
2022/07/19 01:58:46;;;;;;;2.80;1.55;;;;;;;;;;4980264;28;20098;-63
2022/07/19 02:01:12;;;;;;;10.57;1.67;;;;;;;;;;4985498;28;20034;-63
2022/07/19 02:03:37;;;;;;;5.13;1.75;;;;;;;;;;4983524;28;20085;-65
2022/07/19 02:06:03;;;;;;;3.20;1.92;;;;;;;;;;4984492;28;20092;-63
2022/07/19 02:08:28;;;;;;;3.58;2.15;;;;;;;;;;4983605;28;20050;-64
2022/07/19 02:10:54;;;;;;;2.70;1.45;;;;;;;;;;4983141;28;20062;-63
2022/07/19 02:13:19;;;;;;;3.80;1.52;;;;;;;;;;4987679;28;20157;-63
2022/07/19 02:15:45;;;;;;;6.80;1.80;;;;;;;;;;4982423;28;20361;-64
2022/07/19 02:18:11;;;;;;;2.30;1.50;;;;;;;;;;4984088;28;20054;-63
2022/07/19 02:20:36;;;;;;;4.85;2.15;;;;;;;;;;4984640;28;20408;-63
2022/07/19 02:23:02;;;;;;;5.40;2.05;;;;;;;;;;4980527;28;20097;-64
2022/07/19 02:25:27;;;;;;;2.80;1.80;;;;;;;;;;4983781;28;20902;-63
2022/07/19 02:27:53;;;;;;;4.53;1.95;;;;;;;;;;4983992;28;20662;-64
2022/07/19 02:30:19;;;;;;;4.32;2.00;;;;;;;;;;4981296;28;20311;-65
2022/07/19 02:32:44;;;;;;;5.80;1.88;;;;;;;;;;4984012;28;20041;-63
2022/07/19 02:35:11;;;;;;;6.32;1.80;;;;;;;;;;4981704;28;20486;-64
2022/07/19 02:37:37;;;;;;;5.85;1.70;;;;;;;;;;4986443;28;20054;-63
2022/07/19 02:40:03;;;;;;;3.53;2.10;;;;;;;;;;4981854;28;20026;-63
2022/07/19 02:42:29;;;;;;;3.95;2.08;;;;;;;;;;4981849;28;20423;-63
2022/07/19 02:44:54;;;;;;;10.48;2.80;;;;;;;;;;4984127;28;20069;-62
2022/07/19 02:47:19;;;;;;;9.55;1.88;;;;;;;;;;4986211;28;20058;-62
2022/07/19 02:49:45;;;;;;;5.28;1.83;;;;;;;;;;4982170;28;20101;-63
2022/07/19 02:52:11;;;;;;;5.65;1.88;;;;;;;;;;4982046;28;20233;-62
2022/07/19 02:54:36;;;;;;;4.38;1.70;;;;;;;;;;4984781;28;20034;-63
2022/07/19 02:57:02;;;;;;;2.97;1.80;;;;;;;;;;4979212;28;20073;-62
2022/07/19 02:59:27;;;;;;;4.60;2.00;;;;;;;;;;4982731;28;20054;-63
2022/07/19 03:01:53;;;;;;;3.33;1.70;;;;;;;;;;4982135;28;20408;-63
2022/07/19 03:04:19;;;;;;;4.88;1.95;;;;;;;;;;4984613;28;20105;-63
2022/07/19 03:06:44;;;;;;;5.15;1.80;;;;;;;;;;4983593;28;20121;-63
2022/07/19 03:09:11;;;;;;;3.05;1.92;;;;;;;;;;4984024;28;20866;-63
2022/07/19 03:11:37;;;;;;;2.90;1.73;;;;;;;;;;4981554;28;20492;-63
2022/07/19 03:14:03;;;;;;;3.83;2.00;;;;;;;;;;4983791;28;20069;-63
2022/07/19 03:16:28;;;;;;;6.07;2.03;;;;;;;;;;4983807;28;20489;-63
2022/07/19 03:18:54;;;;;;;5.65;1.90;;;;;;;;;;4985136;28;20081;-63
2022/07/19 03:21:19;;;;;;;6.03;2.08;;;;;;;;;;4985620;28;20192;-62
2022/07/19 03:23:45;;;;;;;4.05;2.00;;;;;;;;;;4983984;28;20152;-63
2022/07/19 03:26:10;;;;;;;2.58;1.85;;;;;;;;;;4979257;28;20145;-63
2022/07/19 03:28:36;;;;;;;4.75;1.90;;;;;;;;;;4982840;28;20093;-63
2022/07/19 03:31:02;;;;;;;3.00;1.90;;;;;;;;;;4983193;28;20034;-66
2022/07/19 03:33:27;;;;;;;6.35;2.17;;;;;;;;;;4980474;28;20038;-64
2022/07/19 03:35:52;;;;;;;6.32;1.90;;;;;;;;;;4983112;28;20500;-63
2022/07/19 03:38:18;;;;;;;5.43;1.50;;;;;;;;;;4982835;28;20058;-63
2022/07/19 03:40:47;;;;;;;4.47;2.00;;;;;;;;;;4984082;28;20078;-63
2022/07/19 03:43:12;;;;;;;5.30;2.00;;;;;;;;;;4981976;28;20045;-64
2022/07/19 03:45:38;;;;;;;4.82;1.80;;;;;;;;;;4982186;28;20026;-63
2022/07/19 03:48:03;;;;;;;3.90;1.77;;;;;;;;;;4982710;28;20090;-64
2022/07/19 03:50:29;;;;;;;2.72;2.05;;;;;;;;;;4983521;28;20090;-64
2022/07/19 03:52:54;;;;;;;4.32;1.70;;;;;;;;;;4983725;28;20085;-68
2022/07/19 03:55:20;;;;;;;3.33;1.90;;;;;;;;;;4984099;28;20484;-64
2022/07/19 03:57:45;;;;;;;4.88;2.00;;;;;;;;;;4980352;28;20157;-64
2022/07/19 04:00:11;;;;;;;4.45;1.98;;;;;;;;;;4983144;28;20162;-64
2022/07/19 04:02:36;;;;;;;5.05;2.35;;;;;;;;;;4983766;28;20499;-64
2022/07/19 04:05:01;;;;;;;6.00;1.88;;;;;;;;;;4984092;28;20043;-63
2022/07/19 04:07:27;;;;;;;6.05;1.90;;;;;;;;;;4986780;28;20711;-64
2022/07/19 04:09:52;;;;;;;10.02;2.45;;;;;;;;;;4987195;28;20034;-63
2022/07/19 04:12:18;;;;;;;6.55;1.90;;;;;;;;;;4986890;28;21238;-64
2022/07/19 04:14:43;;;;;;;3.58;1.98;;;;;;;;;;4982814;28;20070;-64
2022/07/19 04:17:09;;;;;;;5.32;1.95;;;;;;;;;;4981508;28;20093;-63
2022/07/19 04:19:35;;;;;;;3.40;1.80;;;;;;;;;;4987049;28;20042;-63
2022/07/19 04:22:00;;;;;;;7.15;2.22;;;;;;;;;;4980471;28;20077;-63
2022/07/19 04:24:25;;;;;;;5.47;1.88;;;;;;;;;;4983128;28;20062;-63
2022/07/19 04:26:51;;;;;;;12.95;2.63;;;;;;;;;;4984888;28;20053;-63
2022/07/19 04:29:16;;;;;;;7.07;2.20;;;;;;;;;;4987078;28;20570;-63
2022/07/19 04:31:42;;;;;;;3.72;2.08;;;;;;;;;;4984073;28;20133;-64
2022/07/19 04:34:07;;;;;;;4.72;2.00;;;;;;;;;;4986118;28;20046;-64
2022/07/19 04:36:32;;;;;;;4.45;2.17;;;;;;;;;;4986605;28;20027;-63
2022/07/19 04:38:58;;;;;;;5.22;2.08;;;;;;;;;;4984773;28;20134;-64
2022/07/19 04:41:23;;;;;;;3.08;1.83;;;;;;;;;;4983479;28;20047;-63
2022/07/19 04:43:48;;;;;;;6.38;2.03;;;;;;;;;;4987411;28;20080;-63
2022/07/19 04:46:14;;;;;;;3.95;2.05;;;;;;;;;;4986387;28;20042;-62
2022/07/19 04:48:40;;;;;;;4.28;2.20;;;;;;;;;;4983232;28;20140;-60
2022/07/19 04:51:06;;;;;;;4.57;2.10;;;;;;;;;;4983872;28;20137;-60
2022/07/19 04:53:31;;;;;;;7.38;2.20;;;;;;;;;;4988573;28;20121;-61
2022/07/19 04:55:57;;;;;;;6.18;2.08;;;;;;;;;;4984270;28;20393;-60
2022/07/19 04:58:22;;;;;;;8.35;2.65;;;;;;;;;;4984804;28;20082;-60
2022/07/19 05:00:48;;;;;;;6.05;2.35;;;;;;;;;;4985616;28;20033;-60
2022/07/19 05:03:13;;;;;;;4.22;2.47;;;;;;;;;;4980561;28;20145;-62
2022/07/19 05:05:38;;;;;;;6.25;2.63;;;;;;;;;;4983504;28;20141;-62
2022/07/19 05:08:04;;;;;;;9.23;2.72;;;;;;;;;;4981684;28;20054;-63
2022/07/19 05:10:30;;;;;;;4.10;2.20;;;;;;;;;;4984363;28;20599;-62
2022/07/19 05:12:55;;;;;;;5.43;2.35;;;;;;;;;;4981526;28;20653;-60
2022/07/19 05:15:20;;;;;;;6.03;2.25;;;;;;;;;;4984118;28;20428;-61
2022/07/19 05:17:46;;;;;;;5.25;2.20;;;;;;;;;;4982147;28;20042;-61
2022/07/19 05:20:13;;;;;;;3.50;1.85;;;;;;;;;;4984402;28;20122;-61
2022/07/19 05:22:39;;;;;;;5.20;2.20;;;;;;;;;;4986053;28;20477;-60
2022/07/19 05:25:04;;;;;;;4.03;1.95;;;;;;;;;;4984625;28;20045;-60
2022/07/19 05:27:30;;;;;;;4.35;1.83;;;;;;;;;;4985145;28;20034;-62
2022/07/19 05:29:55;;;;;;;5.20;2.00;;;;;;;;;;4983129;28;20058;-61
2022/07/19 05:32:21;;;;;;;8.93;2.03;;;;;;;;;;4983874;28;20129;-61
2022/07/19 05:34:46;;;;;;;2.13;1.60;;;;;;;;;;4982524;28;20038;-61
2022/07/19 05:37:11;;;;;;;8.95;2.50;;;;;;;;;;4984421;28;20491;-61
2022/07/19 05:39:37;;;;;;;4.13;2.22;;;;;;;;;;4986552;28;20022;-60
2022/07/19 05:42:02;;;;;;;7.18;1.85;;;;;;;;;;4978668;28;20669;-61
2022/07/19 05:44:28;;;;;;;6.10;2.05;;;;;;;;;;4982649;28;20061;-60
2022/07/19 05:46:53;;;;;;;12.88;2.25;;;;;;;;;;4980771;28;20054;-61
2022/07/19 05:49:18;;;;;;;5.22;2.25;;;;;;;;;;4983142;28;20034;-61
2022/07/19 05:51:44;;;;;;;7.20;2.08;;;;;;;;;;4983492;28;20022;-62
2022/07/19 05:54:10;;;;;;;6.68;2.22;;;;;;;;;;4981179;28;20079;-60
2022/07/19 05:56:35;;;;;;;5.22;2.63;;;;;;;;;;4983165;28;20370;-60
2022/07/19 05:59:03;;;;;;;8.32;2.65;;;;;;;;;;4982420;28;20390;-61
2022/07/19 06:01:29;;;;;;;5.20;2.67;;;;;;;;;;4983726;28;20073;-61
2022/07/19 06:03:57;;;;;;;9.30;2.47;;;;;;;;;;4982932;28;20062;-69
2022/07/19 06:06:24;;;;;;;4.63;2.35;;;;;;;;;;4982710;28;20480;-70
2022/07/19 06:08:50;;;;;;;8.10;2.78;;;;;;;;;;4988174;28;20045;-70
2022/07/19 06:11:16;;;;;;;8.65;2.63;;;;;;;;;;4983614;28;20042;-71
2022/07/19 06:13:43;;;;;;;7.72;2.28;;;;;;;;;;4985036;28;20042;-69
2022/07/19 06:16:09;;;;;;;8.77;2.38;;;;;;;;;;4985340;28;20113;-70
2022/07/19 06:18:35;;;;;;;8.85;2.47;;;;;;;;;;4987157;28;20148;-70
2022/07/19 06:21:03;;;;;;;12.23;2.13;;;;;;;;;;4985014;28;20090;-68
2022/07/19 06:23:28;;;;;;;9.35;2.70;;;;;;;;;;4987688;28;20077;-71
2022/07/19 06:25:53;;;;;;;5.78;2.45;;;;;;;;;;4983658;28;20072;-69
2022/07/19 06:28:19;;;;;;;6.57;2.40;;;;;;;;;;4986582;28;20030;-69
2022/07/19 06:30:44;;;;;;;6.88;2.08;;;;;;;;;;4986192;28;20033;-69
2022/07/19 06:33:09;;;;;;;6.40;2.20;;;;;;;;;;4984287;28;20046;-79
2022/07/19 06:35:35;;;;;;;8.93;2.13;;;;;;;;;;4985704;28;20065;-77
2022/07/19 06:38:00;;;;;;;4.60;2.60;;;;;;;;;;4985373;28;20038;-77
2022/07/19 06:40:26;;;;;;;13.63;3.30;;;;;;;;;;4988036;28;20046;-76
2022/07/19 06:42:51;;;;;;;9.10;3.42;;;;;;;;;;4985269;28;20101;-77
2022/07/19 06:45:16;;;;;;;16.40;4.28;;;;;;;;;;4988919;28;20050;-77
2022/07/19 06:47:42;;;;;;;10.23;3.70;;;;;;;;;;4984734;28;20376;-77
2022/07/19 06:50:08;;;;;;;15.43;3.67;;;;;;;;;;4987700;28;20467;-78
2022/07/19 06:52:33;;;;;;;11.57;3.75;;;;;;;;;;4987875;28;20046;-76
2022/07/19 06:54:58;;;;;;;7.47;2.83;;;;;;;;;;4986886;28;20038;-77
2022/07/19 06:57:24;;;;;;;5.90;2.97;;;;;;;;;;4990357;28;24409;-77
2022/07/19 06:59:49;;;;;;;11.77;3.35;;;;;;;;;;4985854;28;20765;-77
2022/07/19 07:02:14;;;;;;;17.05;3.88;;;;;;;;;;4983952;28;20042;-75
2022/07/19 07:04:40;;;;;;;14.45;3.45;;;;;;;;;;4984887;28;20042;-77
2022/07/19 07:07:05;;;;;;;7.90;2.63;;;;;;;;;;4981209;28;20065;-77
2022/07/19 07:09:31;;;;;;;11.43;2.58;;;;;;;;;;4988250;28;20053;-76
2022/07/19 07:11:56;;;;;;;15.35;2.95;;;;;;;;;;4981977;28;20197;-75
2022/07/19 07:14:21;;;;;;;4.95;2.80;;;;;;;;;;4990850;28;20061;-76
2022/07/19 07:16:47;;;;;;;8.13;2.83;;;;;;;;;;4985535;28;21045;-76
2022/07/19 07:19:12;;;;;;;8.38;2.42;;;;;;;;;;4986704;28;20026;-75
2022/07/19 07:21:37;;;;;;;5.07;2.55;;;;;;;;;;4989092;28;20030;-76
2022/07/19 07:24:04;;;;;;;6.65;2.97;;;;;;;;;;4983484;28;21488;-76
2022/07/19 07:26:29;;;;;;;6.53;2.50;;;;;;;;;;4988793;28;20504;-75
2022/07/19 07:28:55;;;;;;;10.07;2.42;;;;;;;;;;4988865;28;20050;-76
2022/07/19 07:31:20;;;;;;;12.20;2.70;;;;;;;;;;4985889;28;20508;-75
2022/07/19 07:33:46;;;;;;;8.15;2.58;;;;;;;;;;4982968;28;20100;-75
2022/07/19 07:36:11;;;;;;;13.55;2.50;;;;;;;;;;4986626;28;20046;-75
2022/07/19 07:38:36;;;;;;;8.02;2.58;;;;;;;;;;4970134;28;20054;-75
2022/07/19 07:41:03;;;;;;;5.47;2.60;;;;;;;;;;4988760;28;20038;-75
2022/07/19 07:43:29;;;;;;;8.73;2.85;;;;;;;;;;4992996;28;20046;-75
2022/07/19 07:45:54;;;;;;;8.15;2.80;;;;;;;;;;4989669;28;20040;-75
2022/07/19 07:48:20;;;;;;;7.88;3.05;;;;;;;;;;4993589;28;20046;-75
2022/07/19 07:50:45;;;;;;;11.73;2.83;;;;;;;;;;4987938;28;20046;-75
2022/07/19 07:53:10;;;;;;;8.02;3.10;;;;;;;;;;4993042;28;20542;-75
2022/07/19 07:55:39;;;;;;;7.15;2.80;;;;;;;;;;4989794;28;20074;-75
2022/07/19 07:58:08;;;;;;;8.55;2.70;;;;;;;;;;4986603;28;20038;-76
2022/07/19 08:00:34;;;;;;;12.80;2.58;;;;;;;;;;4987782;28;20026;-74
2022/07/19 08:02:59;;;;;;;10.10;3.00;;;;;;;;;;4987000;28;20116;-74
2022/07/19 08:05:24;;;;;;;11.00;2.63;;;;;;;;;;4990353;28;20664;-74
2022/07/19 08:07:50;;;;;;;7.65;2.47;;;;;;;;;;4987371;28;20050;-74
2022/07/19 08:10:15;;;;;;;14.20;2.83;;;;;;;;;;4989056;28;20767;-74
2022/07/19 08:12:41;;;;;;;10.23;2.40;;;;;;;;;;4989426;28;20031;-74
2022/07/19 08:15:07;;;;;;;12.10;3.05;;;;;;;;;;4988356;28;20053;-73
2022/07/19 08:17:33;;;;;;;12.77;2.40;;;;;;;;;;4988945;28;20042;-74
2022/07/19 08:19:59;;;;;;;8.60;2.28;;;;;;;;;;4988438;28;20095;-74
2022/07/19 08:22:24;;;;;;;12.25;2.78;;;;;;;;;;4988235;28;20536;-76
2022/07/19 08:24:50;;;;;;;9.38;2.50;;;;;;;;;;4986795;28;20030;-76
2022/07/19 08:27:15;;;;;;;10.88;2.72;;;;;;;;;;4989354;28;20061;-74
2022/07/19 08:29:41;;;;;;;9.68;2.80;;;;;;;;;;4988118;28;20647;-75
2022/07/19 08:32:06;;;;;;;7.22;2.63;;;;;;;;;;4987452;28;20449;-74
2022/07/19 08:34:32;;;;;;;9.93;2.70;;;;;;;;;;4988582;28;20072;-74
2022/07/19 08:36:57;;;;;;;9.38;2.50;;;;;;;;;;4984155;28;21012;-75
2022/07/19 08:39:23;;;;;;;8.98;2.45;;;;;;;;;;5001097;28;20049;-73
2022/07/19 08:41:48;;;;;;;13.32;2.20;;;;;;;;;;4986896;28;20145;-74
2022/07/19 08:44:13;;;;;;;8.70;2.40;;;;;;;;;;4987064;28;20074;-75
2022/07/19 08:46:42;;;;;;;6.70;2.00;;;;;;;;;;4986731;28;20050;-75
2022/07/19 08:49:10;;;;;;;7.05;1.85;;;;;;;;;;4984085;28;20472;-75
2022/07/19 08:51:37;;;;;;;8.48;2.08;;;;;;;;;;4987934;28;20030;-73
2022/07/19 08:54:03;;;;;;;11.32;2.47;;;;;;;;;;4986507;28;20050;-74
2022/07/19 08:59:13;;;;;;;13.38;2.30;;;;;;;;;;4981099;28;20057;-73
2022/07/19 09:01:39;;;;;;;11.18;2.35;;;;;;;;;;4989046;28;20121;-72
2022/07/19 09:04:16;;;;;;;11.05;2.05;;;;;;;;;;4988719;28;20100;-73
2022/07/19 09:06:42;;;;;;;11.63;2.22;;;;;;;;;;4988848;28;20471;-72
2022/07/19 09:09:08;;;;;;;10.13;1.90;;;;;;;;;;4987362;28;20058;-71
2022/07/19 09:11:38;;;;;;;5.63;2.05;;;;;;;;;;4981637;28;20046;-72
2022/07/19 09:14:08;;;;;;;12.32;2.53;;;;;;;;;;4986414;28;20077;-73
2022/07/19 09:16:53;;;;;;;5.10;1.92;;;;;;;;;;4992171;28;20062;-72
2022/07/19 09:19:19;;;;;;;13.65;1.80;;;;;;;;;;4986428;28;20026;-72
2022/07/19 09:22:00;;;;;;;6.97;1.80;;;;;;;;;;4990835;28;20065;-72
2022/07/19 09:24:28;;;;;;;10.77;2.60;;;;;;;;;;4984713;28;20046;-72
2022/07/19 09:27:01;;;;;;;7.85;1.85;;;;;;;;;;4987450;28;20054;-71
2022/07/19 09:29:28;;;;;;;13.70;2.40;;;;;;;;;;4992417;28;20065;-74
2022/07/19 09:32:07;;;;;;;6.10;2.00;;;;;;;;;;4984636;28;20062;-74
2022/07/19 09:34:40;;;;;;;6.65;2.05;;;;;;;;;;4989024;28;20054;-73
2022/07/19 09:37:09;;;;;;;9.35;1.88;;;;;;;;;;4987310;28;20732;-74
2022/07/19 09:39:34;;;;;;;5.47;1.60;;;;;;;;;;4985146;28;20069;-75
2022/07/19 09:42:02;;;;;;;6.05;1.73;;;;;;;;;;4985551;28;20176;-75
2022/07/19 09:44:29;;;;;;;12.52;1.83;;;;;;;;;;4987858;28;20050;-72
2022/07/19 09:46:54;;;;;;;4.45;1.88;;;;;;;;;;4985334;28;20054;-74
2022/07/19 09:49:20;;;;;;;7.43;1.67;;;;;;;;;;4987499;28;20042;-75
2022/07/19 09:51:50;;;;;;;12.43;2.20;;;;;;;;;;4988644;28;20046;-75
2022/07/19 09:54:18;;;;;;;12.10;1.85;;;;;;;;;;4987014;28;20149;-76
2022/07/19 09:56:45;;;;;;;7.53;1.80;;;;;;;;;;4988847;28;20042;-74
2022/07/19 09:59:12;;;;;;;7.68;1.80;;;;;;;;;;4984058;28;20042;-73
2022/07/19 10:01:39;;;;;;;4.65;1.55;;;;;;;;;;4987208;28;20096;-74
2022/07/19 10:04:13;;;;;;;3.00;1.70;;;;;;;;;;4986319;28;20034;-73
2022/07/19 10:06:42;;;;;;;5.85;1.58;;;;;;;;;;4986494;28;20034;-73
2022/07/19 10:09:10;;;;;;;5.65;1.75;;;;;;;;;;4986296;28;20046;-72
2022/07/19 10:11:36;;;;;;;4.60;1.88;;;;;;;;;;4984671;28;20481;-73
2022/07/19 10:14:03;;;;;;;3.42;1.80;;;;;;;;;;4983773;28;20373;-76
2022/07/19 10:16:55;;;;;;;3.03;1.55;;;;;;;;;;4987520;28;20565;-71
2022/07/19 10:19:33;;;;;;;;;;;;;;;;;;4983948;28;20484;-70
2022/07/19 10:21:59;;;;;;;2.25;1.48;;;;;;;;;;4981923;28;19918;-70
2022/07/19 10:24:49;;;;;;;4.40;1.90;;;;;;;;;;4985262;28;20058;-71
2022/07/19 10:27:17;;;;;;;3.67;1.55;;;;;;;;;;4980455;28;20698;-70
2022/07/19 10:29:43;;;;;;;6.70;1.58;;;;;;;;;;4986483;28;20046;-69
2022/07/19 10:32:13;;;;;;;2.38;1.50;;;;;;;;;;4987325;28;20067;-69
2022/07/19 10:34:40;;;;;;;3.78;1.40;;;;;;;;;;4983694;28;20062;-68
2022/07/19 10:37:06;;;;;;;4.25;1.58;;;;;;;;;;4983861;28;20038;-69
2022/07/19 10:39:39;;;;;;;3.40;1.20;;;;;;;;;;4984361;28;20030;-67
2022/07/19 10:42:10;;;;;;;6.63;1.70;;;;;;;;;;4976721;28;20488;-67
2022/07/19 10:45:05;;;;;;;3.80;1.38;;;;;;;;;;4983736;28;20062;-69
2022/07/19 10:47:39;;;;;;;3.92;1.40;;;;;;;;;;4984087;28;20485;-71
2022/07/19 10:50:10;;;;;;;1.52;1.38;;;;;;;;;;4984399;28;20623;-71
2022/07/19 10:52:39;;;;;;;2.90;1.20;;;;;;;;;;4987543;28;20038;-66
2022/07/19 10:55:17;;;;;;;5.85;1.60;;;;;;;;;;4987575;28;20034;-68
2022/07/19 10:57:58;;;;;;;4.38;1.40;;;;;;;;;;4985924;28;20030;-69
2022/07/19 11:00:27;;;;;;;3.13;1.20;;;;;;;;;;4981650;28;20082;-68
2022/07/19 11:03:21;;;;;;;3.47;1.30;;;;;;;;;;4986420;28;20046;-68
2022/07/19 11:05:53;;;;;;;3.10;1.30;;;;;;;;;;4986778;28;20050;-69
2022/07/19 11:08:37;;;;;;;2.30;1.77;;;;;;;;;;4986906;28;20042;-70
2022/07/19 11:11:14;;;;;;;3.72;1.60;;;;;;;;;;4985921;28;20046;-68
2022/07/19 11:13:44;;;;;;;3.00;1.45;;;;;;;;;;4987141;28;20467;-68
2022/07/19 11:16:10;;;;;;;4.32;1.40;;;;;;;;;;4985642;28;20053;-68
2022/07/19 11:18:35;;;;;;;1.58;1.48;;;;;;;;;;4986905;28;20376;-69
2022/07/19 11:21:05;;;;;;;3.95;1.58;;;;;;;;;;4986471;28;20088;-68
2022/07/19 11:23:35;;;;;;;6.32;1.67;;;;;;;;;;4987922;28;20144;-69
2022/07/19 11:26:06;;;;;;;5.38;2.03;;;;;;;;;;4985501;28;20089;-68
2022/07/19 11:28:32;;;;;;;3.58;1.90;;;;;;;;;;4987648;28;20097;-70
2022/07/19 11:30:57;;;;;;;2.65;1.60;;;;;;;;;;4983590;28;20034;-71
2022/07/19 11:33:22;;;;;;;5.85;1.60;;;;;;;;;;4984854;28;20047;-71
2022/07/19 11:35:59;;;;;;;2.25;1.60;;;;;;;;;;4986922;28;20092;-69
2022/07/19 11:38:55;;;;;;;4.93;1.58;;;;;;;;;;4987608;28;20112;-69
2022/07/19 11:41:26;;;;;;;4.00;1.60;;;;;;;;;;4980122;28;20100;-68
2022/07/19 11:44:06;;;;;;;3.65;1.60;;;;;;;;;;4985527;28;20042;-70
2022/07/19 11:46:37;;;;;;;4.30;1.63;;;;;;;;;;4986988;28;20061;-69
2022/07/19 11:49:05;;;;;;;5.50;1.40;;;;;;;;;;4987131;28;20046;-68
2022/07/19 11:51:31;;;;;;;4.38;1.92;;;;;;;;;;4985822;28;20026;-68
2022/07/19 11:53:58;;;;;;;5.18;1.73;;;;;;;;;;4989398;28;20050;-69
2022/07/19 11:56:24;;;;;;;6.10;1.73;;;;;;;;;;4988380;28;20046;-70
2022/07/19 11:58:54;;;;;;;3.88;1.63;;;;;;;;;;4988535;28;20059;-70
2022/07/19 12:01:26;;;;;;;4.07;1.67;;;;;;;;;;4982994;28;20183;-69
2022/07/19 12:03:53;;;;;;;2.88;1.77;;;;;;;;;;4983604;28;20041;-69
2022/07/19 12:06:19;;;;;;;2.58;1.77;;;;;;;;;;4985574;28;20124;-70
2022/07/19 12:08:45;;;;;;;3.65;1.73;;;;;;;;;;4985136;28;20050;-70
2022/07/19 12:11:24;;;;;;;4.47;1.98;;;;;;;;;;4986046;28;20054;-68
2022/07/19 12:13:51;;;;;;;7.13;1.90;;;;;;;;;;4988555;28;20385;-72
2022/07/19 12:16:17;;;;;;;2.90;1.60;;;;;;;;;;4985976;28;20050;-71
2022/07/19 12:18:55;;;;;;;6.95;1.92;;;;;;;;;;4986020;28;20487;-72
2022/07/19 12:21:28;;;;;;;5.10;2.10;;;;;;;;;;4986298;28;20046;-71
2022/07/19 12:24:12;;;;;;;5.78;1.70;;;;;;;;;;4986906;28;20469;-73
2022/07/19 12:26:39;;;;;;;5.45;2.08;;;;;;;;;;4988966;28;20125;-71
2022/07/19 12:29:21;;;;;;;4.53;1.85;;;;;;;;;;4989640;28;20058;-74
2022/07/19 12:31:48;;;;;;;6.80;1.95;;;;;;;;;;4991062;28;20196;-73
2022/07/19 12:34:15;;;;;;;8.45;1.70;;;;;;;;;;4989469;28;20397;-73
2022/07/19 12:36:40;;;;;;;4.50;2.08;;;;;;;;;;4990159;28;20420;-71
2022/07/19 12:39:19;;;;;;;3.65;1.80;;;;;;;;;;4988677;28;20061;-71
2022/07/19 12:42:02;;;;;;;6.80;1.83;;;;;;;;;;4990265;28;20112;-68
2022/07/19 12:44:28;;;;;;;4.53;1.95;;;;;;;;;;4982789;28;20109;-71
2022/07/19 12:46:54;;;;;;;5.95;1.80;;;;;;;;;;4990090;28;20049;-69
2022/07/19 12:49:20;;;;;;;14.63;1.90;;;;;;;;;;4990162;28;20030;-69
2022/07/19 12:51:45;;;;;;;5.40;1.98;;;;;;;;;;4988114;28;20403;-72
2022/07/19 12:54:11;;;;;;;5.07;1.70;;;;;;;;;;4988946;28;20046;-72
2022/07/19 12:56:38;;;;;;;5.22;2.20;;;;;;;;;;4989385;28;20508;-78
2022/07/19 13:01:48;;;;;;;5.78;2.20;;;;;;;;;;4987876;28;20101;-71
2022/07/19 13:04:13;;;;;;;4.80;1.98;;;;;;;;;;4987870;28;20034;-71
2022/07/19 13:06:39;;;;;;;6.65;2.03;;;;;;;;;;4989370;28;20460;-72
2022/07/19 13:09:04;;;;;;;7.97;1.73;;;;;;;;;;4988597;28;20046;-71
2022/07/19 13:11:30;;;;;;;3.83;2.00;;;;;;;;;;4987744;28;20400;-70
2022/07/19 13:13:55;;;;;;;4.63;2.00;;;;;;;;;;4992257;28;20039;-68
2022/07/19 13:16:23;;;;;;;3.75;1.83;;;;;;;;;;4987338;28;20042;-71
2022/07/19 13:18:53;;;;;;;10.43;2.05;;;;;;;;;;4989435;28;20026;-71
2022/07/19 13:21:19;;;;;;;4.47;2.13;;;;;;;;;;4989280;28;20038;-73
2022/07/19 13:23:44;;;;;;;5.00;2.10;;;;;;;;;;4986513;28;20061;-71
2022/07/19 13:26:09;;;;;;;3.83;1.92;;;;;;;;;;4988103;28;20062;-71
2022/07/19 13:28:37;;;;;;;4.95;2.05;;;;;;;;;;4983985;28;20043;-70
2022/07/19 13:31:02;;;;;;;8.10;2.20;;;;;;;;;;4985851;28;20092;-70
2022/07/19 13:33:28;;;;;;;7.10;1.80;;;;;;;;;;4986984;28;20038;-71
2022/07/19 13:35:53;;;;;;;6.10;1.90;;;;;;;;;;4988408;28;20485;-72
2022/07/19 13:38:19;;;;;;;3.72;1.88;;;;;;;;;;4985925;28;20077;-71
2022/07/19 13:40:44;;;;;;;7.85;1.88;;;;;;;;;;4988096;28;20050;-72
2022/07/19 13:43:10;;;;;;;2.97;2.00;;;;;;;;;;4987665;28;20038;-70
2022/07/19 13:45:35;;;;;;;6.15;2.20;;;;;;;;;;4982445;28;20029;-72
2022/07/19 13:48:00;;;;;;;6.20;1.85;;;;;;;;;;4988400;28;20054;-72
2022/07/19 13:50:27;;;;;;;3.67;1.77;;;;;;;;;;4988206;28;20108;-71
2022/07/19 13:52:53;;;;;;;3.00;1.80;;;;;;;;;;4989937;28;20038;-71
2022/07/19 13:55:18;;;;;;;3.20;2.17;;;;;;;;;;4989217;28;20037;-71
2022/07/19 13:57:43;;;;;;;4.05;1.90;;;;;;;;;;4989756;28;20084;-72
2022/07/19 14:00:10;;;;;;;6.97;2.10;;;;;;;;;;4982690;28;20081;-72
2022/07/19 14:02:37;;;;;;;3.85;2.05;;;;;;;;;;4986274;28;20070;-70
2022/07/19 14:05:04;;;;;;;4.00;1.73;;;;;;;;;;4988462;28;20069;-72
2022/07/19 14:07:30;;;;;;;3.08;1.80;;;;;;;;;;5001650;28;20082;-70
2022/07/19 14:09:55;;;;;;;3.17;1.70;;;;;;;;;;4987641;28;20120;-70
2022/07/19 14:12:21;;;;;;;4.07;2.10;;;;;;;;;;4983140;28;20058;-71
2022/07/19 14:14:46;;;;;;;8.95;2.92;;;;;;;;;;4986080;28;20057;-70
2022/07/19 14:17:12;;;;;;;4.75;2.42;;;;;;;;;;4984038;28;20533;-70
2022/07/19 14:19:37;;;;;;;3.70;2.28;;;;;;;;;;4985679;28;20039;-71
2022/07/19 14:22:03;;;;;;;4.47;1.90;;;;;;;;;;4988554;28;20096;-70
2022/07/19 14:24:28;;;;;;;5.13;2.05;;;;;;;;;;4987114;28;20117;-71
2022/07/19 14:26:54;;;;;;;6.30;2.03;;;;;;;;;;4988088;28;20069;-68
2022/07/19 14:29:19;;;;;;;3.95;2.00;;;;;;;;;;4986308;28;20053;-71
2022/07/19 14:31:45;;;;;;;2.33;1.80;;;;;;;;;;4984296;28;20070;-71
2022/07/19 14:34:10;;;;;;;3.25;1.70;;;;;;;;;;4986635;28;20034;-71
2022/07/19 14:36:36;;;;;;;7.53;2.00;;;;;;;;;;4986708;28;20061;-71
2022/07/19 14:39:01;;;;;;;6.03;1.90;;;;;;;;;;4985615;28;20122;-70
2022/07/19 14:41:26;;;;;;;3.03;1.90;;;;;;;;;;4986455;28;20058;-70
2022/07/19 14:43:52;;;;;;;3.83;1.73;;;;;;;;;;4987406;28;20086;-70
2022/07/19 14:46:17;;;;;;;4.97;2.05;;;;;;;;;;4985756;28;20035;-70